createdAt,value
2019-03-01T00:00:02.738Z,0.00
2019-03-01T00:01:02.731Z,0.00
2019-03-01T00:02:02.797Z,0.00
2019-03-01T00:03:03.086Z,0.00
2019-03-01T00:04:02.910Z,0.00
2019-03-01T00:05:02.845Z,0.00
2019-03-01T00:06:02.932Z,0.00
2019-03-01T00:07:02.903Z,0.00
2019-03-01T00:08:02.992Z,0.00
2019-03-01T00:09:03.021Z,0.00
2019-03-01T00:10:03.301Z,0.00
2019-03-01T00:11:03.090Z,0.00
2019-03-01T00:12:03.067Z,0.00
2019-03-01T00:13:03.167Z,0.00
2019-03-01T00:14:03.134Z,0.00
2019-03-01T00:15:03.163Z,0.00
2019-03-01T00:17:03.273Z,0.00
2019-03-01T00:18:03.609Z,0.00
2019-03-01T00:19:03.287Z,0.00
2019-03-01T00:20:03.321Z,0.00
2019-03-01T00:21:03.400Z,0.00
2019-03-01T00:22:03.383Z,0.00
2019-03-01T00:23:03.417Z,0.00
2019-03-01T00:24:03.446Z,0.00
2019-03-01T00:25:03.530Z,0.00
2019-03-01T00:26:03.554Z,0.00
2019-03-01T00:27:03.542Z,0.00
2019-03-01T00:28:03.929Z,0.00
2019-03-01T00:29:03.654Z,0.00
2019-03-01T00:30:03.682Z,0.00
2019-03-01T00:31:03.724Z,0.00
2019-03-01T00:32:03.753Z,0.00
2019-03-01T00:33:03.723Z,0.00
2019-03-01T00:34:03.811Z,0.00
2019-03-01T00:35:04.142Z,0.00
2019-03-01T00:37:03.904Z,0.00
2019-03-01T00:38:03.903Z,0.00
2019-03-01T00:39:03.913Z,0.00
2019-03-01T00:40:04.005Z,0.00
2019-03-01T00:41:04.031Z,0.00
2019-03-01T00:42:04.032Z,0.00
2019-03-01T00:43:04.053Z,0.00
2019-03-01T00:44:04.131Z,0.00
2019-03-01T00:45:04.106Z,0.00
2019-03-01T00:46:04.182Z,0.00
2019-03-01T00:47:04.319Z,0.00
2019-03-01T00:48:04.494Z,0.00
2019-03-01T00:49:04.384Z,0.00
2019-03-01T00:50:04.409Z,0.00
2019-03-01T00:51:04.341Z,0.00
2019-03-01T00:52:04.370Z,0.00
2019-03-01T00:53:04.365Z,0.00
2019-03-01T00:54:04.435Z,0.00
2019-03-01T00:55:04.720Z,0.00
2019-03-01T00:56:04.504Z,0.00
2019-03-01T00:57:04.484Z,0.00
2019-03-01T00:58:04.567Z,0.00
2019-03-01T00:59:04.597Z,0.00
2019-03-01T01:01:04.655Z,0.00
2019-03-01T01:02:04.999Z,0.00
2019-03-01T01:03:04.666Z,0.00
2019-03-01T01:04:04.779Z,0.00
2019-03-01T01:05:04.794Z,0.00
2019-03-01T01:07:04.848Z,0.00
2019-03-01T01:08:04.882Z,0.00
2019-03-01T01:09:05.153Z,0.00
2019-03-01T01:10:04.937Z,0.00
2019-03-01T01:11:04.923Z,0.00
2019-03-01T01:12:04.999Z,0.00
2019-03-01T01:13:05.033Z,0.00
2019-03-01T01:14:05.169Z,0.00
2019-03-01T01:15:05.096Z,0.00
2019-03-01T01:16:05.530Z,0.00
2019-03-01T01:17:05.162Z,0.00
2019-03-01T01:18:05.135Z,0.00
2019-03-01T01:19:05.169Z,0.00
2019-03-01T01:20:05.254Z,0.00
2019-03-01T01:21:05.281Z,0.00
2019-03-01T01:22:05.335Z,0.00
2019-03-01T01:23:05.656Z,0.00
2019-03-01T01:24:05.380Z,0.00
2019-03-01T01:25:05.368Z,0.00
2019-03-01T01:26:05.443Z,0.00
2019-03-01T01:27:05.478Z,0.00
2019-03-01T01:28:05.457Z,0.00
2019-03-01T01:29:05.551Z,0.00
2019-03-01T01:30:05.825Z,0.00
2019-03-01T01:31:05.544Z,0.00
2019-03-01T01:33:05.665Z,0.00
2019-03-01T01:35:05.730Z,0.00
2019-03-01T01:36:06.000Z,0.00
2019-03-01T01:37:05.737Z,0.00
2019-03-01T01:38:05.773Z,0.00
2019-03-01T01:39:05.849Z,0.00
2019-03-01T01:40:05.833Z,0.00
2019-03-01T01:41:05.912Z,0.00
2019-03-01T01:42:06.194Z,0.00
2019-03-01T01:43:05.928Z,0.00
2019-03-01T01:44:06.007Z,0.00
2019-03-01T01:45:06.029Z,0.00
2019-03-01T01:46:06.019Z,0.00
2019-03-01T01:47:06.047Z,0.00
2019-03-01T01:48:06.380Z,0.00
2019-03-01T01:49:06.163Z,0.00
2019-03-01T01:50:06.219Z,0.00
2019-03-01T01:51:06.180Z,0.00
2019-03-01T01:52:06.351Z,0.00
2019-03-01T01:53:06.232Z,0.00
2019-03-01T01:54:06.319Z,0.00
2019-03-01T01:55:06.652Z,0.00
2019-03-01T01:56:06.380Z,0.00
2019-03-01T01:57:06.364Z,0.00
2019-03-01T01:58:06.392Z,0.00
2019-03-01T01:59:06.478Z,0.00
2019-03-01T02:00:06.509Z,0.00
2019-03-01T02:01:06.541Z,0.00
2019-03-01T02:02:06.837Z,0.00
2019-03-01T02:03:06.709Z,0.00
2019-03-01T02:04:06.638Z,0.00
2019-03-01T02:05:06.609Z,0.00
2019-03-01T02:06:06.640Z,0.00
2019-03-01T02:07:06.670Z,0.00
2019-03-01T02:08:06.753Z,0.00
2019-03-01T02:09:07.085Z,0.00
2019-03-01T02:10:06.776Z,0.00
2019-03-01T02:11:06.908Z,0.00
2019-03-01T02:12:06.890Z,0.00
2019-03-01T02:13:06.857Z,0.00
2019-03-01T02:14:06.951Z,0.00
2019-03-01T02:15:06.954Z,0.00
2019-03-01T02:16:07.253Z,0.00
2019-03-01T02:17:06.994Z,0.00
2019-03-01T02:18:07.120Z,0.00
2019-03-01T02:19:07.099Z,0.00
2019-03-01T02:20:07.152Z,0.00
2019-03-01T02:21:07.165Z,0.00
2019-03-01T02:22:07.141Z,0.00
2019-03-01T02:23:07.475Z,0.00
2019-03-01T02:24:07.252Z,0.00
2019-03-01T02:25:07.287Z,0.00
2019-03-01T02:27:07.306Z,0.00
2019-03-01T02:28:07.337Z,0.00
2019-03-01T02:29:07.413Z,0.00
2019-03-01T02:30:07.744Z,0.00
2019-03-01T02:31:07.429Z,0.00
2019-03-01T02:32:07.507Z,0.00
2019-03-01T02:33:07.539Z,0.00
2019-03-01T02:34:07.571Z,0.00
2019-03-01T02:35:07.596Z,0.00
2019-03-01T02:36:07.633Z,0.00
2019-03-01T02:38:07.994Z,0.00
2019-03-01T02:39:07.729Z,0.00
2019-03-01T02:40:07.780Z,0.00
2019-03-01T02:41:07.793Z,0.00
2019-03-01T02:42:07.844Z,0.00
2019-03-01T02:43:07.810Z,0.00
2019-03-01T02:44:07.898Z,0.00
2019-03-01T02:45:08.225Z,0.00
2019-03-01T02:46:07.942Z,0.00
2019-03-01T02:47:07.998Z,0.00
2019-03-01T02:48:08.003Z,0.00
2019-03-01T02:49:08.045Z,0.00
2019-03-01T02:50:08.029Z,0.00
2019-03-01T02:51:08.097Z,0.00
2019-03-01T02:52:08.449Z,0.00
2019-03-01T02:53:08.169Z,0.00
2019-03-01T02:54:08.197Z,0.00
2019-03-01T02:55:08.240Z,0.00
2019-03-01T02:56:08.231Z,0.00
2019-03-01T02:57:08.283Z,0.00
2019-03-01T02:58:08.419Z,0.00
2019-03-01T02:59:08.604Z,0.00
2019-03-01T03:00:08.403Z,0.00
2019-03-01T03:01:08.355Z,0.00
2019-03-01T03:02:08.443Z,0.00
2019-03-01T03:03:08.479Z,0.00
2019-03-01T03:04:08.504Z,0.00
2019-03-01T03:05:08.540Z,0.00
2019-03-01T03:06:08.815Z,0.00
2019-03-01T03:07:08.605Z,0.00
2019-03-01T03:08:08.589Z,0.00
2019-03-01T03:09:08.667Z,0.00
2019-03-01T03:10:08.639Z,0.00
2019-03-01T03:11:08.728Z,0.00
2019-03-01T03:12:08.753Z,0.00
2019-03-01T03:13:09.046Z,0.00
2019-03-01T03:14:08.789Z,0.00
2019-03-01T03:15:08.806Z,0.00
2019-03-01T03:16:08.835Z,0.00
2019-03-01T03:17:08.927Z,0.00
2019-03-01T03:18:08.887Z,0.00
2019-03-01T03:19:08.929Z,0.00
2019-03-01T03:20:09.307Z,0.00
2019-03-01T03:21:09.039Z,0.00
2019-03-01T03:22:09.022Z,0.00
2019-03-01T03:23:09.118Z,0.00
2019-03-01T03:24:09.234Z,0.00
2019-03-01T03:25:09.156Z,0.00
2019-03-01T03:26:09.191Z,0.00
2019-03-01T03:27:09.528Z,0.00
2019-03-01T03:28:09.260Z,0.00
2019-03-01T03:29:09.239Z,0.00
2019-03-01T03:30:09.326Z,0.00
2019-03-01T03:31:09.352Z,0.00
2019-03-01T03:33:09.432Z,0.00
2019-03-01T03:34:09.688Z,0.00
2019-03-01T03:35:09.473Z,0.00
2019-03-01T03:36:09.502Z,0.00
2019-03-01T03:37:09.541Z,0.00
2019-03-01T03:38:09.569Z,0.00
2019-03-01T03:39:09.910Z,0.00
2019-03-01T03:40:09.586Z,0.00
2019-03-01T03:41:09.967Z,0.00
2019-03-01T03:42:09.642Z,0.00
2019-03-01T03:43:09.720Z,0.00
2019-03-01T03:44:09.762Z,0.00
2019-03-01T03:45:09.744Z,0.00
2019-03-01T03:46:09.814Z,0.00
2019-03-01T03:47:10.096Z,0.00
2019-03-01T03:48:09.879Z,0.00
2019-03-01T03:49:09.860Z,0.00
2019-03-01T03:50:09.893Z,0.00
2019-03-01T03:51:09.984Z,0.00
2019-03-01T03:52:10.016Z,0.00
2019-03-01T03:53:10.291Z,0.00
2019-03-01T03:54:10.017Z,0.00
2019-03-01T03:55:10.047Z,0.00
2019-03-01T03:56:10.126Z,0.00
2019-03-01T03:57:10.161Z,0.00
2019-03-01T03:58:10.160Z,0.00
2019-03-01T03:59:10.475Z,0.00
2019-03-01T04:00:10.205Z,0.00
2019-03-01T04:01:10.284Z,0.00
2019-03-01T04:02:10.315Z,0.00
2019-03-01T04:03:10.305Z,0.00
2019-03-01T04:04:10.375Z,0.00
2019-03-01T04:06:10.574Z,0.00
2019-03-01T04:07:10.570Z,0.00
2019-03-01T04:08:10.508Z,0.00
2019-03-01T04:09:10.533Z,0.00
2019-03-01T04:10:10.515Z,0.00
2019-03-01T04:11:10.547Z,0.00
2019-03-01T04:12:10.736Z,0.00
2019-03-01T04:13:10.958Z,0.00
2019-03-01T04:14:10.695Z,0.00
2019-03-01T04:15:10.681Z,0.00
2019-03-01T04:16:10.723Z,0.00
2019-03-01T04:17:10.778Z,0.00
2019-03-01T04:18:10.975Z,0.00
2019-03-01T04:19:10.968Z,0.00
2019-03-01T04:20:10.889Z,0.00
2019-03-01T04:23:10.995Z,0.00
2019-03-01T04:24:11.000Z,0.00
2019-03-01T04:25:11.030Z,0.00
2019-03-01T04:26:11.369Z,0.00
2019-03-01T04:28:11.125Z,0.00
2019-03-01T04:29:11.104Z,0.00
2019-03-01T04:30:11.142Z,0.00
2019-03-01T04:31:11.223Z,0.00
2019-03-01T04:33:11.287Z,0.00
2019-03-01T04:34:11.622Z,0.00
2019-03-01T04:35:11.293Z,0.00
2019-03-01T04:36:11.384Z,0.00
2019-03-01T04:37:11.410Z,0.00
2019-03-01T04:38:11.390Z,0.00
2019-03-01T04:39:11.468Z,0.00
2019-03-01T04:40:11.498Z,0.00
2019-03-01T04:41:11.839Z,0.00
2019-03-01T04:42:11.572Z,0.00
2019-03-01T04:43:11.562Z,0.00
2019-03-01T04:44:11.632Z,0.00
2019-03-01T04:45:11.663Z,0.00
2019-03-01T04:46:11.991Z,0.00
2019-03-01T04:47:11.725Z,0.00
2019-03-01T04:48:12.060Z,0.00
2019-03-01T04:49:11.790Z,0.00
2019-03-01T04:50:11.821Z,0.00
2019-03-01T04:51:11.858Z,0.00
2019-03-01T04:52:11.931Z,0.00
2019-03-01T04:53:11.918Z,0.00
2019-03-01T04:54:11.886Z,0.00
2019-03-01T04:55:12.220Z,0.00
2019-03-01T04:56:12.102Z,0.00
2019-03-01T04:57:12.029Z,0.00
2019-03-01T04:58:12.014Z,0.00
2019-03-01T04:59:12.097Z,0.00
2019-03-01T05:00:12.126Z,0.00
2019-03-01T05:01:12.204Z,0.00
2019-03-01T05:02:12.443Z,0.00
2019-03-01T05:03:12.223Z,0.00
2019-03-01T05:04:12.303Z,0.00
2019-03-01T05:05:12.239Z,0.00
2019-03-01T05:06:12.319Z,0.00
2019-03-01T05:07:12.290Z,0.00
2019-03-01T05:08:12.385Z,0.00
2019-03-01T05:09:12.716Z,0.00
2019-03-01T05:10:12.391Z,0.00
2019-03-01T05:11:12.421Z,0.00
2019-03-01T05:12:12.509Z,0.00
2019-03-01T05:13:12.487Z,0.00
2019-03-01T05:14:12.568Z,0.00
2019-03-01T05:15:14.512Z,0.00
2019-03-01T05:16:12.899Z,0.00
2019-03-01T05:17:12.669Z,0.00
2019-03-01T05:18:12.698Z,0.00
2019-03-01T05:19:12.823Z,0.00
2019-03-01T05:20:12.780Z,0.00
2019-03-01T05:21:12.787Z,0.00
2019-03-01T05:22:12.772Z,0.00
2019-03-01T05:23:13.141Z,0.00
2019-03-01T05:24:12.881Z,0.00
2019-03-01T05:25:12.901Z,0.00
2019-03-01T05:26:12.937Z,0.00
2019-03-01T05:27:12.921Z,0.00
2019-03-01T05:29:13.134Z,0.00
2019-03-01T05:30:13.364Z,0.00
2019-03-01T05:31:13.049Z,0.00
2019-03-01T05:32:13.130Z,0.00
2019-03-01T05:33:13.154Z,0.00
2019-03-01T05:34:13.135Z,0.00
2019-03-01T05:35:13.219Z,0.00
2019-03-01T05:36:13.249Z,0.00
2019-03-01T05:37:13.234Z,0.00
2019-03-01T05:38:21.477Z,0.00
2019-03-01T05:39:13.295Z,0.00
2019-03-01T05:40:13.379Z,0.00
2019-03-01T05:41:13.410Z,0.00
2019-03-01T05:42:13.695Z,0.00
2019-03-01T05:43:13.565Z,0.00
2019-03-01T05:44:13.604Z,0.00
2019-03-01T05:45:13.535Z,0.00
2019-03-01T05:46:13.507Z,0.00
2019-03-01T05:47:13.596Z,0.00
2019-03-01T05:48:13.928Z,0.00
2019-03-01T05:49:13.608Z,0.00
2019-03-01T05:50:13.688Z,0.00
2019-03-01T05:51:13.730Z,0.00
2019-03-01T05:52:13.764Z,0.00
2019-03-01T05:53:13.732Z,0.00
2019-03-01T05:54:13.759Z,0.00
2019-03-01T05:55:14.241Z,0.00
2019-03-01T05:56:13.870Z,0.00
2019-03-01T05:57:13.853Z,0.00
2019-03-01T05:58:16.744Z,0.00
2019-03-01T05:59:13.965Z,0.00
2019-03-01T06:00:14.003Z,0.00
2019-03-01T06:01:14.043Z,0.00
2019-03-01T06:02:14.475Z,0.00
2019-03-01T06:03:14.091Z,4.00
2019-03-01T06:04:14.141Z,4.00
2019-03-01T06:05:14.115Z,0.00
2019-03-01T06:06:14.189Z,4.00
2019-03-01T06:07:14.175Z,4.00
2019-03-01T06:08:14.246Z,4.00
2019-03-01T06:09:14.579Z,4.00
2019-03-01T06:10:14.269Z,8.00
2019-03-01T06:11:14.356Z,4.00
2019-03-01T06:13:14.356Z,8.00
2019-03-01T06:14:14.403Z,8.00
2019-03-01T06:15:14.470Z,8.00
2019-03-01T06:16:15.132Z,8.00
2019-03-01T06:17:14.533Z,4.00
2019-03-01T06:18:14.563Z,8.00
2019-03-01T06:19:14.553Z,4.00
2019-03-01T06:20:14.925Z,4.00
2019-03-01T06:21:14.651Z,8.00
2019-03-01T06:22:14.633Z,8.00
2019-03-01T06:23:14.717Z,8.00
2019-03-01T06:24:14.747Z,16.00
2019-03-01T06:25:15.079Z,16.00
2019-03-01T06:27:16.449Z,20.00
2019-03-01T06:28:14.878Z,20.00
2019-03-01T06:29:15.212Z,20.00
2019-03-01T06:30:14.891Z,20.00
2019-03-01T06:31:14.978Z,24.00
2019-03-01T06:32:14.949Z,32.00
2019-03-01T06:34:15.060Z,40.00
2019-03-01T06:35:15.071Z,44.00
2019-03-01T06:36:15.377Z,44.00
2019-03-01T06:37:15.161Z,40.00
2019-03-01T06:38:16.165Z,36.00
2019-03-01T06:40:15.248Z,44.00
2019-03-01T06:42:15.314Z,48.00
2019-03-01T06:43:15.652Z,52.00
2019-03-01T06:44:15.385Z,48.00
2019-03-01T06:45:15.498Z,48.00
2019-03-01T06:46:15.385Z,44.00
2019-03-01T06:47:15.541Z,52.00
2019-03-01T06:48:15.497Z,60.00
2019-03-01T06:49:15.494Z,60.00
2019-03-01T06:50:15.959Z,52.00
2019-03-01T06:51:15.709Z,60.00
2019-03-01T06:52:15.632Z,60.00
2019-03-01T06:53:15.612Z,56.00
2019-03-01T06:54:15.695Z,52.00
2019-03-01T06:55:15.669Z,60.00
2019-03-01T06:56:16.064Z,56.00
2019-03-01T06:58:15.819Z,40.00
2019-03-01T06:59:15.800Z,36.00
2019-03-01T07:00:15.831Z,40.00
2019-03-01T07:01:15.869Z,36.00
2019-03-01T07:02:16.537Z,40.00
2019-03-01T07:03:15.965Z,36.00
2019-03-01T07:04:15.998Z,40.00
2019-03-01T07:05:15.977Z,48.00
2019-03-01T07:06:16.061Z,52.00
2019-03-01T07:08:16.082Z,84.00
2019-03-01T07:09:16.457Z,92.00
2019-03-01T07:10:16.283Z,112.00
2019-03-01T07:11:16.221Z,136.00
2019-03-01T07:12:16.251Z,148.00
2019-03-01T07:13:16.276Z,160.00
2019-03-01T07:14:16.268Z,188.00
2019-03-01T07:15:16.647Z,192.00
2019-03-01T07:16:16.376Z,192.00
2019-03-01T07:17:16.402Z,192.00
2019-03-01T07:18:16.433Z,204.00
2019-03-01T07:19:16.469Z,216.00
2019-03-01T07:20:16.453Z,220.00
2019-03-01T07:21:16.531Z,220.00
2019-03-01T07:22:16.861Z,228.00
2019-03-01T07:23:16.593Z,236.00
2019-03-01T07:24:16.834Z,228.00
2019-03-01T07:25:16.862Z,228.00
2019-03-01T07:26:17.386Z,220.00
2019-03-01T07:27:16.718Z,216.00
2019-03-01T07:28:16.781Z,196.00
2019-03-01T07:30:16.770Z,184.00
2019-03-01T07:31:16.790Z,196.00
2019-03-01T07:32:16.820Z,200.00
2019-03-01T07:33:16.904Z,208.00
2019-03-01T07:35:17.083Z,228.00
2019-03-01T07:36:17.001Z,224.00
2019-03-01T07:37:17.028Z,228.00
2019-03-01T07:38:17.015Z,240.00
2019-03-01T07:39:17.049Z,232.00
2019-03-01T07:40:17.135Z,240.00
2019-03-01T07:41:17.106Z,216.00
2019-03-01T07:42:17.291Z,176.00
2019-03-01T07:43:17.321Z,172.00
2019-03-01T07:44:17.346Z,176.00
2019-03-01T07:45:17.286Z,192.00
2019-03-01T07:46:17.423Z,200.00
2019-03-01T07:47:17.339Z,244.00
2019-03-01T07:48:17.800Z,280.00
2019-03-01T07:50:17.439Z,304.00
2019-03-01T07:52:17.468Z,392.00
2019-03-01T07:53:17.531Z,376.00
2019-03-01T07:54:18.087Z,356.00
2019-03-01T07:55:17.889Z,356.00
2019-03-01T07:56:17.576Z,376.00
2019-03-01T07:57:17.650Z,404.00
2019-03-01T07:58:17.630Z,452.00
2019-03-01T07:59:17.671Z,532.00
2019-03-01T08:00:17.775Z,600.00
2019-03-01T08:01:17.786Z,656.00
2019-03-01T08:02:17.770Z,688.00
2019-03-01T08:03:17.801Z,704.00
2019-03-01T08:04:17.874Z,704.00
2019-03-01T08:05:17.867Z,680.00
2019-03-01T08:06:18.240Z,636.00
2019-03-01T08:07:20.504Z,668.00
2019-03-01T08:08:17.950Z,672.00
2019-03-01T08:09:18.025Z,660.00
2019-03-01T08:10:22.508Z,676.00
2019-03-01T08:11:18.050Z,840.00
2019-03-01T08:12:18.219Z,912.00
2019-03-01T08:13:18.489Z,852.00
2019-03-01T08:14:18.154Z,772.00
2019-03-01T08:15:18.311Z,752.00
2019-03-01T08:16:20.209Z,776.00
2019-03-01T08:17:18.234Z,768.00
2019-03-01T08:18:18.261Z,788.00
2019-03-01T08:19:22.533Z,836.00
2019-03-01T08:20:18.373Z,876.00
2019-03-01T08:21:18.410Z,904.00
2019-03-01T08:22:20.781Z,880.00
2019-03-01T08:23:18.490Z,836.00
2019-03-01T08:24:18.500Z,832.00
2019-03-01T08:25:23.496Z,828.00
2019-03-01T08:26:18.624Z,792.00
2019-03-01T08:27:18.535Z,720.00
2019-03-01T08:28:21.841Z,668.00
2019-03-01T08:29:18.635Z,648.00
2019-03-01T08:30:18.650Z,620.00
2019-03-01T08:31:21.059Z,620.00
2019-03-01T08:32:19.046Z,652.00
2019-03-01T08:33:18.896Z,696.00
2019-03-01T08:34:18.921Z,724.00
2019-03-01T08:35:18.840Z,708.00
2019-03-01T08:36:18.815Z,712.00
2019-03-01T08:37:18.853Z,740.00
2019-03-01T08:38:18.890Z,812.00
2019-03-01T08:39:19.366Z,856.00
2019-03-01T08:40:19.000Z,868.00
2019-03-01T08:41:21.642Z,876.00
2019-03-01T08:42:19.015Z,880.00
2019-03-01T08:43:19.040Z,816.00
2019-03-01T08:44:22.648Z,688.00
2019-03-01T08:46:19.479Z,464.00
2019-03-01T08:47:23.286Z,372.00
2019-03-01T08:48:19.256Z,404.00
2019-03-01T08:50:19.258Z,272.00
2019-03-01T08:51:22.629Z,272.00
2019-03-01T08:52:19.382Z,268.00
2019-03-01T08:53:19.404Z,272.00
2019-03-01T08:54:23.037Z,276.00
2019-03-01T08:55:19.465Z,292.00
2019-03-01T08:56:25.902Z,300.00
2019-03-01T08:57:22.708Z,316.00
2019-03-01T08:58:19.577Z,332.00
2019-03-01T08:59:19.624Z,360.00
2019-03-01T09:00:19.636Z,416.00
2019-03-01T09:01:19.609Z,432.00
2019-03-01T09:02:19.637Z,428.00
2019-03-01T09:03:22.436Z,392.00
2019-03-01T09:04:21.612Z,348.00
2019-03-01T09:05:19.774Z,348.00
2019-03-01T09:06:19.901Z,348.00
2019-03-01T09:07:19.961Z,324.00
2019-03-01T09:08:19.822Z,316.00
2019-03-01T09:09:21.077Z,328.00
2019-03-01T09:10:19.884Z,348.00
2019-03-01T09:11:19.907Z,328.00
2019-03-01T09:12:20.006Z,308.00
2019-03-01T09:13:20.031Z,316.00
2019-03-01T09:14:22.759Z,328.00
2019-03-01T09:15:20.131Z,336.00
2019-03-01T09:16:20.460Z,332.00
2019-03-01T09:17:20.102Z,320.00
2019-03-01T09:18:20.201Z,276.00
2019-03-01T09:19:22.294Z,248.00
2019-03-01T09:20:20.214Z,236.00
2019-03-01T09:21:20.223Z,244.00
2019-03-01T09:23:25.277Z,332.00
2019-03-01T09:24:20.529Z,320.00
2019-03-01T09:25:20.611Z,308.00
2019-03-01T09:26:20.780Z,272.00
2019-03-01T09:27:20.473Z,256.00
2019-03-01T09:28:20.510Z,244.00
2019-03-01T09:29:20.640Z,256.00
2019-03-01T09:30:20.659Z,260.00
2019-03-01T09:31:20.683Z,292.00
2019-03-01T09:32:20.643Z,280.00
2019-03-01T09:33:21.588Z,280.00
2019-03-01T09:34:20.678Z,272.00
2019-03-01T09:35:20.712Z,276.00
2019-03-01T09:36:21.526Z,316.00
2019-03-01T09:38:20.753Z,320.00
2019-03-01T09:39:20.779Z,308.00
2019-03-01T09:40:20.968Z,288.00
2019-03-01T09:41:20.903Z,292.00
2019-03-01T09:42:20.874Z,264.00
2019-03-01T09:43:20.918Z,320.00
2019-03-01T09:44:20.992Z,348.00
2019-03-01T09:45:20.996Z,340.00
2019-03-01T09:46:24.040Z,372.00
2019-03-01T09:47:21.192Z,388.00
2019-03-01T09:48:21.412Z,404.00
2019-03-01T09:49:24.074Z,400.00
2019-03-01T09:50:21.132Z,420.00
2019-03-01T09:51:21.215Z,412.00
2019-03-01T09:52:23.509Z,436.00
2019-03-01T09:53:21.387Z,460.00
2019-03-01T09:54:21.261Z,520.00
2019-03-01T09:55:21.640Z,556.00
2019-03-01T09:56:21.361Z,568.00
2019-03-01T09:57:21.397Z,432.00
2019-03-01T09:58:21.535Z,396.00
2019-03-01T09:59:21.456Z,356.00
2019-03-01T10:00:21.485Z,368.00
2019-03-01T10:01:21.472Z,404.00
2019-03-01T10:02:21.552Z,376.00
2019-03-01T10:03:21.537Z,364.00
2019-03-01T10:04:21.607Z,376.00
2019-03-01T10:05:21.665Z,388.00
2019-03-01T10:06:21.619Z,424.00
2019-03-01T10:08:22.345Z,476.00
2019-03-01T10:09:21.767Z,404.00
2019-03-01T10:10:21.749Z,388.00
2019-03-01T10:11:21.823Z,412.00
2019-03-01T10:12:21.809Z,404.00
2019-03-01T10:13:21.841Z,380.00
2019-03-01T10:14:21.966Z,332.00
2019-03-01T10:16:22.033Z,296.00
2019-03-01T10:17:21.958Z,288.00
2019-03-01T10:18:22.040Z,308.00
2019-03-01T10:19:22.034Z,324.00
2019-03-01T10:20:22.118Z,364.00
2019-03-01T10:21:22.451Z,412.00
2019-03-01T10:23:22.153Z,456.00
2019-03-01T10:24:22.229Z,452.00
2019-03-01T10:25:29.213Z,452.00
2019-03-01T10:26:22.253Z,448.00
2019-03-01T10:27:22.430Z,464.00
2019-03-01T10:28:22.391Z,452.00
2019-03-01T10:29:22.341Z,476.00
2019-03-01T10:30:22.425Z,460.00
2019-03-01T10:32:22.479Z,476.00
2019-03-01T10:33:22.515Z,452.00
2019-03-01T10:34:22.846Z,432.00
2019-03-01T10:35:22.527Z,396.00
2019-03-01T10:36:22.602Z,388.00
2019-03-01T10:37:22.636Z,388.00
2019-03-01T10:38:22.615Z,404.00
2019-03-01T10:39:22.644Z,388.00
2019-03-01T10:40:22.727Z,420.00
2019-03-01T10:41:22.758Z,376.00
2019-03-01T10:42:22.747Z,388.00
2019-03-01T10:43:23.501Z,420.00
2019-03-01T10:44:22.797Z,452.00
2019-03-01T10:45:22.831Z,448.00
2019-03-01T10:46:22.917Z,492.00
2019-03-01T10:47:22.894Z,480.00
2019-03-01T10:48:22.982Z,528.00
2019-03-01T10:49:23.125Z,580.00
2019-03-01T10:50:23.047Z,524.00
2019-03-01T10:51:23.073Z,520.00
2019-03-01T10:52:23.101Z,516.00
2019-03-01T10:53:23.080Z,484.00
2019-03-01T10:54:23.114Z,412.00
2019-03-01T10:55:23.147Z,368.00
2019-03-01T10:56:23.222Z,348.00
2019-03-01T10:57:23.208Z,324.00
2019-03-01T10:58:23.688Z,372.00
2019-03-01T10:59:23.416Z,388.00
2019-03-01T11:00:23.349Z,360.00
2019-03-01T11:01:23.328Z,384.00
2019-03-01T11:02:23.355Z,356.00
2019-03-01T11:03:23.438Z,340.00
2019-03-01T11:04:23.468Z,336.00
2019-03-01T11:05:23.800Z,344.00
2019-03-01T11:06:23.498Z,320.00
2019-03-01T11:07:23.566Z,328.00
2019-03-01T11:08:23.710Z,344.00
2019-03-01T11:11:23.690Z,412.00
2019-03-01T11:12:23.979Z,436.00
2019-03-01T11:13:23.766Z,472.00
2019-03-01T11:14:23.793Z,544.00
2019-03-01T11:15:23.763Z,620.00
2019-03-01T11:16:23.959Z,788.00
2019-03-01T11:17:23.819Z,824.00
2019-03-01T11:18:23.848Z,736.00
2019-03-01T11:19:23.884Z,640.00
2019-03-01T11:20:23.919Z,632.00
2019-03-01T11:21:23.949Z,680.00
2019-03-01T11:22:24.123Z,736.00
2019-03-01T11:23:24.014Z,712.00
2019-03-01T11:24:24.073Z,644.00
2019-03-01T11:25:24.075Z,568.00
2019-03-01T11:26:24.148Z,504.00
2019-03-01T11:27:24.187Z,496.00
2019-03-01T11:28:24.163Z,556.00
2019-03-01T11:29:24.261Z,516.00
2019-03-01T11:30:24.227Z,460.00
2019-03-01T11:31:24.281Z,496.00
2019-03-01T11:32:24.435Z,632.00
2019-03-01T11:33:24.365Z,576.00
2019-03-01T11:34:24.353Z,556.00
2019-03-01T11:35:24.430Z,556.00
2019-03-01T11:36:24.461Z,528.00
2019-03-01T11:37:24.492Z,544.00
2019-03-01T11:38:24.474Z,600.00
2019-03-01T11:39:24.501Z,684.00
2019-03-01T11:40:24.604Z,764.00
2019-03-01T11:41:24.566Z,864.00
2019-03-01T11:42:24.649Z,788.00
2019-03-01T11:43:25.113Z,640.00
2019-03-01T11:44:24.710Z,612.00
2019-03-01T11:45:24.740Z,768.00
2019-03-01T11:46:24.771Z,816.00
2019-03-01T11:47:24.755Z,860.00
2019-03-01T11:48:24.943Z,840.00
2019-03-01T11:49:24.813Z,740.00
2019-03-01T11:50:25.196Z,860.00
2019-03-01T11:51:24.882Z,668.00
2019-03-01T11:52:24.971Z,696.00
2019-03-01T11:53:24.957Z,756.00
2019-03-01T11:54:24.975Z,644.00
2019-03-01T11:55:25.052Z,692.00
2019-03-01T11:56:25.085Z,624.00
2019-03-01T11:57:25.062Z,680.00
2019-03-01T11:59:25.282Z,672.00
2019-03-01T12:00:25.201Z,660.00
2019-03-01T12:01:25.235Z,576.00
2019-03-01T12:02:25.217Z,640.00
2019-03-01T12:03:25.614Z,608.00
2019-03-01T12:04:25.362Z,628.00
2019-03-01T12:05:25.358Z,592.00
2019-03-01T12:06:25.391Z,656.00
2019-03-01T12:07:25.537Z,744.00
2019-03-01T12:08:25.466Z,600.00
2019-03-01T12:09:25.504Z,652.00
2019-03-01T12:10:25.776Z,776.00
2019-03-01T12:11:25.559Z,640.00
2019-03-01T12:12:25.582Z,640.00
2019-03-01T12:13:25.568Z,660.00
2019-03-01T12:14:25.660Z,712.00
2019-03-01T12:15:25.672Z,524.00
2019-03-01T12:16:25.697Z,628.00
2019-03-01T12:17:25.740Z,588.00
2019-03-01T12:18:25.798Z,648.00
2019-03-01T12:19:25.801Z,476.00
2019-03-01T12:20:25.836Z,528.00
2019-03-01T12:22:26.092Z,500.00
2019-03-01T12:23:25.870Z,528.00
2019-03-01T12:24:25.899Z,496.00
2019-03-01T12:25:25.933Z,548.00
2019-03-01T12:26:26.105Z,464.00
2019-03-01T12:27:26.071Z,512.00
2019-03-01T12:28:26.116Z,532.00
2019-03-01T12:29:26.110Z,540.00
2019-03-01T12:30:26.139Z,500.00
2019-03-01T12:31:26.266Z,504.00
2019-03-01T12:32:26.148Z,456.00
2019-03-01T12:33:26.334Z,608.00
2019-03-01T12:34:26.369Z,488.00
2019-03-01T12:35:26.587Z,484.00
2019-03-01T12:36:26.323Z,612.00
2019-03-01T12:37:26.304Z,564.00
2019-03-01T12:38:26.390Z,524.00
2019-03-01T12:39:26.368Z,504.00
2019-03-01T12:40:26.441Z,624.00
2019-03-01T12:41:26.427Z,548.00
2019-03-01T12:42:26.460Z,484.00
2019-03-01T12:43:26.633Z,556.00
2019-03-01T12:44:26.528Z,516.00
2019-03-01T12:45:26.552Z,428.00
2019-03-01T12:46:26.629Z,456.00
2019-03-01T12:47:26.664Z,540.00
2019-03-01T12:48:26.693Z,500.00
2019-03-01T12:49:26.735Z,544.00
2019-03-01T12:50:26.705Z,560.00
2019-03-01T12:51:26.731Z,620.00
2019-03-01T12:52:26.820Z,684.00
2019-03-01T12:53:26.789Z,716.00
2019-03-01T12:54:27.174Z,612.00
2019-03-01T12:55:26.860Z,604.00
2019-03-01T12:56:26.905Z,716.00
2019-03-01T12:57:26.966Z,672.00
2019-03-01T12:58:26.952Z,624.00
2019-03-01T12:59:26.980Z,588.00
2019-03-01T13:00:27.067Z,540.00
2019-03-01T13:01:27.053Z,616.00
2019-03-01T13:02:27.093Z,624.00
2019-03-01T13:03:27.115Z,496.00
2019-03-01T13:04:27.353Z,472.00
2019-03-01T13:05:29.410Z,524.00
2019-03-01T13:06:27.204Z,452.00
2019-03-01T13:07:27.580Z,440.00
2019-03-01T13:09:27.397Z,504.00
2019-03-01T13:10:27.375Z,580.00
2019-03-01T13:11:27.406Z,560.00
2019-03-01T13:12:27.429Z,532.00
2019-03-01T13:13:27.771Z,520.00
2019-03-01T13:14:27.492Z,580.00
2019-03-01T13:15:27.478Z,568.00
2019-03-01T13:16:27.621Z,496.00
2019-03-01T13:17:27.624Z,532.00
2019-03-01T13:18:27.565Z,516.00
2019-03-01T13:19:27.907Z,528.00
2019-03-01T13:20:29.749Z,532.00
2019-03-01T13:21:27.723Z,512.00
2019-03-01T13:22:28.093Z,456.00
2019-03-01T13:23:27.722Z,460.00
2019-03-01T13:24:27.807Z,468.00
2019-03-01T13:25:29.430Z,444.00
2019-03-01T13:26:28.114Z,500.00
2019-03-01T13:27:27.847Z,612.00
2019-03-01T13:28:27.937Z,360.00
2019-03-01T13:29:27.959Z,388.00
2019-03-01T13:31:28.021Z,288.00
2019-03-01T13:33:28.091Z,504.00